Time;durP1;ratioP1;P1;durP2;ratioP2;P2;SDS_P1;SDS_P2;PMS_P1;PMS_P2;Temp;Humidity;BMP_temperature;BMP_pressure;BME280_temperature;BME280_humidity;BME280_pressure;Samples;Min_cycle;Max_cycle;Signal;HPM_P1;HPM_P2
2021/07/17 00:06:23;;;;;;;25.38;22.15;;;20.40;99.90;;;;;;5075339;28;20201;-79
2021/07/17 00:08:50;;;;;;;31.50;17.00;;;20.40;99.90;;;;;;5072444;28;20206;-79
2021/07/17 00:11:17;;;;;;;26.02;16.88;;;20.40;99.90;;;;;;5072315;28;20233;-79
2021/07/17 00:19:22;;;;;;;34.20;30.88;;;20.50;99.90;;;;;;5084077;28;20204;-80
2021/07/17 00:21:49;;;;;;;37.42;16.33;;;20.60;99.90;;;;;;5078212;28;20208;-79
2021/07/17 00:24:16;;;;;;;40.25;36.42;;;20.50;99.90;;;;;;5073165;28;20202;-80
2021/07/17 00:26:43;;;;;;;44.97;40.65;;;20.50;99.90;;;;;;5071342;28;20229;-79
2021/07/17 00:37:21;;;;;;;37.42;33.75;;;20.60;99.90;;;;;;5074610;28;20209;-79
2021/07/17 00:47:53;;;;;;;22.98;18.98;;;20.60;99.90;;;;;;5070206;28;20241;-79
2021/07/17 00:55:56;;;;;;;27.73;24.90;;;20.60;99.90;;;;;;5068241;28;20216;-80
2021/07/17 01:01:08;;;;;;;36.08;32.58;;;20.70;99.90;;;;;;5075748;28;20200;-78
2021/07/17 01:03:36;;;;;;;42.80;33.28;;;20.60;99.90;;;;;;5081301;28;20237;-78
2021/07/17 01:06:05;;;;;;;32.22;16.67;;;20.50;99.90;;;;;;5076506;28;20209;-78
2021/07/17 01:14:01;;;;;;;54.22;50.25;;;20.60;99.90;;;;;;5075845;28;20208;-80
2021/07/17 01:21:55;;;;;;;47.50;43.17;;;20.50;99.90;;;;;;5071693;28;20201;-78
2021/07/17 01:32:33;;;;;;;40.88;27.42;;;20.40;99.90;;;;;;5074251;28;20206;-79
2021/07/17 01:45:46;;;;;;;50.65;46.50;;;20.40;99.90;;;;;;5070318;28;20201;-78
2021/07/17 01:53:55;;;;;;;60.08;54.78;;;20.40;99.90;;;;;;5071706;28;20235;-79
2021/07/17 01:56:22;;;;;;;59.80;54.50;;;20.30;99.90;;;;;;5070463;28;20668;-79
2021/07/17 01:58:50;;;;;;;51.80;47.65;;;20.30;99.90;;;;;;5070181;28;20201;-79
2021/07/17 02:01:17;;;;;;;70.18;63.85;;;20.20;99.90;;;;;;5072701;28;20288;-79
2021/07/17 02:03:45;;;;;;;61.85;56.90;;;20.20;99.90;;;;;;5076448;28;20260;-80
2021/07/17 02:06:12;;;;;;;55.20;50.55;;;20.10;99.90;;;;;;5077362;28;20280;-79
2021/07/17 02:08:40;;;;;;;49.80;45.30;;;20.10;99.90;;;;;;5082114;28;20232;-79
2021/07/17 02:11:09;;;;;;;52.72;48.10;;;20.10;99.90;;;;;;5071962;28;20216;-79
2021/07/17 02:13:36;;;;;;;61.83;57.42;;;20.10;99.90;;;;;;5072895;28;20223;-79
2021/07/17 02:16:04;;;;;;;67.43;62.83;;;20.10;99.90;;;;;;5071806;28;20235;-79
2021/07/17 02:18:34;;;;;;;63.92;57.38;;;20.00;99.90;;;;;;5068076;28;20255;-79
2021/07/17 02:21:02;;;;;;;60.10;54.60;;;20.00;99.90;;;;;;5068316;28;20223;-79
2021/07/17 02:23:29;;;;;;;49.92;44.90;;;19.90;99.90;;;;;;5067589;28;20205;-79
2021/07/17 02:25:57;;;;;;;67.38;61.83;;;19.90;99.90;;;;;;5068995;28;20201;-79
2021/07/17 02:28:25;;;;;;;39.00;24.02;;;20.00;99.90;;;;;;5075098;28;20291;-79
2021/07/17 02:30:54;;;;;;;53.17;48.38;;;20.10;99.90;;;;;;5072864;28;20735;-79
2021/07/17 02:33:21;;;;;;;50.83;46.92;;;20.10;99.90;;;;;;5066715;28;20235;-80
2021/07/17 02:35:48;;;;;;;39.97;36.05;;;20.10;99.90;;;;;;5065975;28;20205;-80
2021/07/17 02:38:15;;;;;;;61.22;56.05;;;20.10;99.90;;;;;;5067229;28;20717;-79
2021/07/17 02:40:42;;;;;;;66.60;60.83;;;20.10;99.90;;;;;;5068289;28;20224;-79
2021/07/17 02:43:09;;;;;;;56.00;50.63;;;20.20;99.90;;;;;;5066223;28;20255;-79
2021/07/17 02:45:38;;;;;;;49.58;45.42;;;20.10;99.90;;;;;;5078226;28;20201;-79
2021/07/17 02:48:05;;;;;;;58.15;51.92;;;20.10;99.90;;;;;;5084436;28;20229;-79
2021/07/17 03:01:17;;;;;;;65.72;60.22;;;20.10;99.90;;;;;;5069820;28;20209;-79
2021/07/17 03:03:44;;;;;;;90.28;82.70;;;20.10;99.90;;;;;;5083697;28;20271;-80
2021/07/17 03:06:12;;;;;;;65.90;60.70;;;20.10;99.90;;;;;;5074407;28;20202;-80
2021/07/17 03:16:57;;;;;;;70.78;64.68;;;19.90;99.90;;;;;;5078128;28;20216;-79
2021/07/17 03:19:24;;;;;;;89.18;82.07;;;19.90;99.90;;;;;;5075521;28;20239;-79
2021/07/17 03:30:02;;;;;;;84.45;79.18;;;19.90;99.90;;;;;;5074900;28;20218;-80
2021/07/17 03:32:45;;;;;;;66.75;61.70;;;19.90;99.90;;;;;;5077524;28;20201;-79
2021/07/17 03:38:00;;;;;;;65.70;59.88;;;19.90;99.90;;;;;;5073569;28;20481;-79
2021/07/17 03:40:27;;;;;;;32.20;27.48;;;19.90;99.90;;;;;;5076034;28;20228;-79
2021/07/17 03:42:54;;;;;;;33.55;30.23;;;19.90;99.90;;;;;;5074763;28;20259;-79
2021/07/17 03:45:21;;;;;;;32.75;29.35;;;20.00;99.90;;;;;;5075735;28;20206;-79
2021/07/17 03:47:50;;;;;;;24.30;21.83;;;20.00;99.90;;;;;;5076049;28;20248;-78
2021/07/17 03:58:19;;;;;;;43.65;39.50;;;19.90;99.90;;;;;;5076827;28;20586;-79
2021/07/17 04:00:46;;;;;;;65.88;60.58;;;19.80;99.90;;;;;;5077142;28;20232;-78
2021/07/17 04:03:14;;;;;;;55.45;50.78;;;19.80;99.90;;;;;;5079341;28;20279;-79
2021/07/17 04:11:10;;;;;;;64.13;58.53;;;19.70;99.90;;;;;;5077945;28;20514;-79
2021/07/17 04:21:49;;;;;;;80.97;74.78;;;19.60;99.90;;;;;;5080696;28;20236;-78
2021/07/17 04:32:26;;;;;;;38.55;34.92;;;19.70;99.90;;;;;;5077501;28;20237;-80
2021/07/17 04:40:25;;;;;;;45.13;38.05;;;19.60;99.90;;;;;;5079663;28;20248;-80
2021/07/17 04:48:13;;;;;;;50.63;46.58;;;19.60;99.90;;;;;;5077394;28;20232;-80
2021/07/17 04:50:57;;;;;;;48.10;43.33;;;19.60;99.90;;;;;;5084108;28;20228;-80
2021/07/17 05:04:07;;;;;;;72.20;66.97;;;19.40;99.90;;;;;;5071828;28;20229;-79
2021/07/17 05:06:35;;;;;;;63.50;58.40;;;19.40;99.90;;;;;;5077095;28;20714;-79
2021/07/17 05:09:03;;;;;;;44.17;40.15;;;19.40;99.90;;;;;;5067882;28;20255;-79
2021/07/17 05:19:40;;;;;;;75.60;69.68;;;19.30;99.90;;;;;;5076695;28;20204;-80
2021/07/17 05:22:23;;;;;;;61.03;56.28;;;19.30;99.90;;;;;;5076465;28;20231;-80
2021/07/17 05:24:58;;;;;;;83.20;77.65;;;19.30;99.90;;;;;;5072405;28;20247;-80
2021/07/17 05:32:55;;;;;;;53.35;48.22;;;19.40;99.90;;;;;;5070947;28;20225;-78
2021/07/17 05:38:23;;;;;;;56.35;51.55;;;19.40;99.90;;;;;;5069846;28;20216;-79
2021/07/17 05:40:50;;;;;;;63.13;58.28;;;19.40;99.90;;;;;;5071806;28;20198;-80
2021/07/17 05:51:27;;;;;;;44.72;34.85;;;19.60;99.90;;;;;;5071429;28;20205;-80
2021/07/17 05:54:10;;;;;;;54.05;49.95;;;19.60;99.90;;;;;;5071419;28;20209;-80
2021/07/17 06:01:59;;;;;;;73.88;68.25;;;19.60;99.90;;;;;;5070205;28;20205;-79
2021/07/17 06:04:26;;;;;;;42.60;38.33;;;19.50;99.90;;;;;;5075975;28;20224;-80
2021/07/17 06:06:53;;;;;;;39.42;33.97;;;19.50;99.90;;;;;;5074951;28;20197;-79
2021/07/17 06:20:06;;;;;;;80.60;75.00;;;19.40;99.90;;;;;;5070299;28;20205;-79
2021/07/17 06:22:33;;;;;;;75.78;70.25;;;19.40;99.90;;;;;;5082307;28;20234;-79
2021/07/17 06:25:02;;;;;;;79.78;73.97;;;19.40;99.90;;;;;;5070777;28;20561;-79
2021/07/17 06:38:13;;;;;;;51.90;47.83;;;19.50;99.90;;;;;;5072580;28;20261;-79
2021/07/17 06:40:56;;;;;;;53.03;48.40;;;19.50;99.90;;;;;;5073085;28;20209;-78
2021/07/17 06:43:23;;;;;;;63.53;58.40;;;19.50;99.90;;;;;;5070455;28;20193;-76
2021/07/17 06:45:50;;;;;;;56.90;51.90;;;19.60;99.90;;;;;;5069747;28;20201;-76
2021/07/17 06:48:17;;;;;;;56.25;51.83;;;19.50;99.90;;;;;;5072323;28;20259;-78
2021/07/17 06:50:44;;;;;;;62.25;56.67;;;19.50;99.90;;;;;;5080821;28;20205;-78
2021/07/17 06:53:11;;;;;;;48.92;42.58;;;19.50;99.90;;;;;;5076728;28;20285;-78
2021/07/17 06:55:40;;;;;;;32.88;29.50;;;19.50;99.90;;;;;;5077708;28;20248;-79
2021/07/17 06:58:09;;;;;;;42.70;39.13;;;19.50;99.90;;;;;;5075681;28;20212;-78
2021/07/17 07:00:36;;;;;;;74.10;68.65;;;19.50;99.90;;;;;;5076073;28;20205;-77
2021/07/17 07:03:04;;;;;;;67.07;62.03;;;19.50;99.90;;;;;;5076062;28;20270;-77
2021/07/17 07:05:31;;;;;;;71.25;65.68;;;19.50;99.90;;;;;;5071554;28;20202;-77
2021/07/17 07:07:58;;;;;;;64.22;59.55;;;19.50;99.90;;;;;;5072369;28;20275;-77
2021/07/17 07:10:25;;;;;;;46.90;42.75;;;19.40;99.90;;;;;;5078246;28;20205;-77
2021/07/17 07:12:52;;;;;;;73.03;67.63;;;19.40;99.90;;;;;;5075692;28;20206;-77
2021/07/17 07:15:20;;;;;;;55.58;51.25;;;19.40;99.90;;;;;;5074928;28;20202;-78
2021/07/17 07:17:47;;;;;;;51.72;47.55;;;19.40;99.90;;;;;;5073444;28;20232;-77
2021/07/17 07:20:16;;;;;;;52.55;47.85;;;19.40;99.90;;;;;;5069875;28;20699;-77
2021/07/17 07:22:43;;;;;;;30.67;27.50;;;19.50;99.90;;;;;;5072601;28;20240;-78
2021/07/17 07:25:12;;;;;;;53.47;48.90;;;19.60;99.90;;;;;;5075432;28;20201;-79
2021/07/17 07:27:40;;;;;;;46.35;38.65;;;19.60;99.90;;;;;;5068258;28;20197;-78
2021/07/17 07:30:07;;;;;;;42.85;38.20;;;19.60;99.90;;;;;;5068359;28;20244;-78
2021/07/17 07:32:36;;;;;;;36.80;33.13;;;19.70;99.90;;;;;;5068129;28;20301;-78
2021/07/17 07:35:03;;;;;;;33.58;25.95;;;19.80;99.90;;;;;;5068745;28;20647;-78
2021/07/17 07:37:30;;;;;;;36.28;22.90;;;19.90;99.90;;;;;;5068686;28;20228;-78
2021/07/17 07:39:58;;;;;;;32.38;29.40;;;19.90;99.90;;;;;;5069020;28;20251;-78
2021/07/17 07:42:25;;;;;;;38.88;34.65;;;19.90;99.90;;;;;;5068673;28;20205;-78
2021/07/17 07:44:52;;;;;;;38.35;35.03;;;19.90;99.90;;;;;;5071457;28;20271;-78
2021/07/17 07:47:19;;;;;;;46.42;31.30;;;19.90;99.90;;;;;;5071426;28;21297;-78
2021/07/17 07:49:48;;;;;;;55.22;50.47;;;20.10;99.90;;;;;;5071203;28;20233;-78
2021/07/17 07:52:15;;;;;;;54.55;50.47;;;20.30;99.90;;;;;;5072622;28;20198;-79
2021/07/17 07:54:41;;;;;;;57.92;52.75;;;20.30;99.90;;;;;;5076519;28;20212;-79
2021/07/17 07:57:08;;;;;;;44.70;40.88;;;20.20;99.90;;;;;;5078653;28;20205;-78
2021/07/17 07:59:35;;;;;;;61.88;56.65;;;20.20;99.90;;;;;;5077038;28;20205;-78
2021/07/17 08:02:02;;;;;;;39.95;36.53;;;20.30;99.90;;;;;;5073519;28;20206;-78
2021/07/17 08:04:29;;;;;;;55.00;50.38;;;20.40;99.90;;;;;;5071170;28;20221;-78
2021/07/17 08:06:58;;;;;;;50.92;46.95;;;20.40;99.90;;;;;;5070876;28;20201;-78
2021/07/17 08:09:25;;;;;;;40.05;37.08;;;20.40;99.90;;;;;;5072224;28;20237;-78
2021/07/17 08:11:52;;;;;;;26.33;20.13;;;20.40;99.90;;;;;;5071890;28;20228;-79
2021/07/17 08:14:19;;;;;;;41.83;38.05;;;20.40;99.90;;;;;;5080706;28;20211;-79
2021/07/17 08:16:46;;;;;;;42.60;30.05;;;20.40;99.90;;;;;;5082173;28;20205;-79
2021/07/17 08:19:13;;;;;;;37.67;28.50;;;20.50;99.90;;;;;;5082160;28;20205;-78
2021/07/17 08:21:40;;;;;;;34.72;31.05;;;20.50;99.90;;;;;;5072106;28;20232;-78
2021/07/17 08:24:08;;;;;;;45.42;42.05;;;20.60;99.90;;;;;;5077953;28;20220;-78
2021/07/17 08:26:36;;;;;;;40.17;36.10;;;20.70;99.90;;;;;;5072217;28;20232;-79
2021/07/17 08:29:04;;;;;;;31.08;19.38;;;20.80;99.90;;;;;;5078280;28;20252;-78
2021/07/17 08:31:31;;;;;;;40.95;36.92;;;21.00;99.90;;;;;;5075576;28;20193;-78
2021/07/17 08:33:59;;;;;;;37.15;33.45;;;21.10;99.90;;;;;;5071958;28;20673;-78
2021/07/17 08:36:26;;;;;;;23.55;21.08;;;21.20;99.90;;;;;;5072741;28;20610;-78
2021/07/17 08:38:53;;;;;;;24.38;20.33;;;21.20;99.90;;;;;;5072462;28;20201;-78
2021/07/17 08:41:26;;;;;;;37.75;34.28;;;21.20;99.90;;;;;;5083489;28;20198;-78
2021/07/17 08:43:56;;;;;;;37.38;33.75;;;21.30;99.90;;;;;;5082142;28;20219;-78
2021/07/17 08:46:23;;;;;;;33.03;29.58;;;21.30;99.90;;;;;;5070242;28;20257;-79
2021/07/17 08:48:51;;;;;;;41.80;38.25;;;21.50;99.90;;;;;;5081015;28;20224;-79
2021/07/17 08:51:18;;;;;;;51.78;47.97;;;21.70;99.90;;;;;;5070261;28;20216;-78
2021/07/17 08:53:46;;;;;;;33.72;30.88;;;21.80;99.90;;;;;;5071022;28;20680;-78
2021/07/17 08:56:13;;;;;;;39.88;36.15;;;22.10;99.90;;;;;;5071640;28;20241;-79
2021/07/17 08:58:42;;;;;;;27.92;25.25;;;22.40;99.90;;;;;;5076411;28;20271;-79
2021/07/17 09:01:09;;;;;;;17.85;9.35;;;22.80;99.90;;;;;;5070937;28;20202;-78
2021/07/17 09:03:36;;;;;;;17.10;8.25;;;23.30;99.90;;;;;;5081652;28;20266;-79
2021/07/17 09:06:03;;;;;;;22.08;9.32;;;23.70;99.90;;;;;;5080799;28;20232;-79
2021/07/17 09:08:30;;;;;;;16.33;7.47;;;24.00;99.90;;;;;;5069424;28;20241;-79
2021/07/17 09:10:57;;;;;;;25.65;7.90;;;24.30;99.90;;;;;;5070159;28;20217;-78
2021/07/17 09:13:25;;;;;;;10.90;6.63;;;24.60;99.90;;;;;;5080921;28;20247;-78
2021/07/17 09:16:03;;;;;;;18.08;11.07;;;24.80;99.90;;;;;;5073030;28;20206;-78
2021/07/17 09:18:33;;;;;;;18.15;8.80;;;24.90;99.90;;;;;;5068974;28;20194;-79
2021/07/17 09:21:04;;;;;;;11.60;8.23;;;25.00;99.90;;;;;;5071149;28;20210;-78
2021/07/17 09:23:32;;;;;;;12.63;8.90;;;25.00;99.90;;;;;;5077395;28;20202;-79
2021/07/17 09:26:01;;;;;;;17.00;11.57;;;25.00;99.90;;;;;;5075281;28;20197;-79
2021/07/17 09:28:30;;;;;;;18.13;11.63;;;25.00;99.90;;;;;;5070145;28;20288;-78
2021/07/17 09:31:01;;;;;;;10.00;7.53;;;25.20;99.90;;;;;;5069659;28;20247;-79
2021/07/17 09:33:28;;;;;;;11.65;7.90;;;25.40;99.90;;;;;;5069564;28;20201;-79
2021/07/17 09:35:57;;;;;;;16.88;6.03;;;25.60;99.90;;;;;;5083440;28;20455;-79
2021/07/17 09:38:26;;;;;;;15.70;6.13;;;25.80;99.90;;;;;;5070659;28;20220;-79
2021/07/17 09:40:55;;;;;;;11.07;6.63;;;25.70;99.90;;;;;;5070322;28;20269;-79
2021/07/17 09:43:31;;;;;;;8.38;6.25;;;25.80;99.90;;;;;;5074782;28;20206;-78
2021/07/17 09:46:00;;;;;;;16.13;7.70;;;25.70;99.90;;;;;;5070425;28;20228;-79
2021/07/17 09:48:30;;;;;;;18.33;7.32;;;25.70;99.90;;;;;;5071590;28;20224;-79
2021/07/17 09:50:58;;;;;;;12.00;6.15;;;25.70;99.90;;;;;;5070817;28;20235;-78
2021/07/17 09:53:45;;;;;;;9.70;5.70;;;25.90;99.90;;;;;;5075776;28;20676;-79
2021/07/17 09:56:14;;;;;;;11.40;5.38;;;26.00;99.90;;;;;;5070062;28;20198;-78
2021/07/17 09:58:41;;;;;;;10.57;5.05;;;25.90;99.90;;;;;;5069781;28;20202;-78
2021/07/17 10:05:10;;;;;;;9.07;6.07;;;26.10;99.90;;;;;;5096750;27;20580;-78
2021/07/17 10:07:38;;;;;;;9.88;5.70;;;26.50;99.90;;;;;;5087398;28;20205;-78
2021/07/17 10:18:24;;;;;;;14.73;5.32;;;26.60;99.90;;;;;;5083116;28;20227;-77
2021/07/17 10:20:57;;;;;;;9.73;3.85;;;26.90;99.90;;;;;;5082760;28;20304;-77
2021/07/17 10:23:32;;;;;;;10.35;5.25;;;27.10;99.90;;;;;;5082813;28;20229;-77
2021/07/17 10:28:42;;;;;;;14.68;5.30;;;27.30;99.90;;;;;;5089515;28;20211;-77
2021/07/17 10:31:09;;;;;;;13.10;5.20;;;27.10;99.90;;;;;;5083086;28;20205;-77
2021/07/17 10:33:37;;;;;;;16.85;5.32;;;27.10;99.90;;;;;;5087271;28;20201;-78
2021/07/17 10:36:18;;;;;;;12.35;5.03;;;27.20;99.90;;;;;;5089708;28;20240;-77
2021/07/17 10:38:46;;;;;;;9.75;4.97;;;27.20;99.90;;;;;;5082899;28;20267;-77
2021/07/17 10:41:23;;;;;;;7.40;3.35;;;27.30;99.90;;;;;;5084565;28;20311;-77
2021/07/17 10:46:35;;;;;;;8.60;3.50;;;27.40;99.90;;;;;;5082286;28;20656;-77
2021/07/17 10:49:03;;;;;;;8.13;3.50;;;27.80;99.90;;;;;;5082777;28;20270;-77
2021/07/17 10:51:35;;;;;;;10.20;3.88;;;28.00;99.90;;;;;;5091502;28;20258;-77
2021/07/17 10:54:04;;;;;;;8.52;3.72;;;28.10;99.90;;;;;;5087144;28;20208;-77
2021/07/17 10:56:49;;;;;;;5.97;3.25;;;28.30;99.90;;;;;;5082774;28;20233;-77
2021/07/17 10:59:55;;;;;;;11.70;3.42;;;28.40;99.90;;;;;;5082289;28;20238;-77
2021/07/17 11:02:26;;;;;;;10.40;3.83;;;28.60;99.90;;;;;;5087883;28;20224;-77
2021/07/17 11:05:02;;;;;;;9.10;3.58;;;28.70;99.90;;;;;;5089827;28;20228;-77
2021/07/17 11:07:34;;;;;;;9.07;3.28;;;28.60;99.90;;;;;;5086048;28;20197;-77
2021/07/17 11:10:14;;;;;;;6.95;3.55;;;28.60;99.90;;;;;;5087273;28;20205;-77
2021/07/17 11:12:58;;;;;;;5.53;3.08;;;28.60;99.90;;;;;;5087660;28;20213;-78
2021/07/17 11:15:39;;;;;;;12.70;3.17;;;28.20;99.90;;;;;;5081751;28;20211;-78
2021/07/17 11:18:31;;;;;;;5.40;3.22;;;27.90;99.90;;;;;;5069291;28;20205;-76
2021/07/17 11:20:59;;;;;;;6.45;2.72;;;27.70;99.90;;;;;;5068318;28;20691;-77
2021/07/17 11:23:45;;;;;;;6.43;2.78;;;27.60;99.90;;;;;;5069398;28;20227;-77
2021/07/17 11:26:20;;;;;;;4.03;2.83;;;27.50;99.90;;;;;;5073231;28;20213;-77
2021/07/17 11:29:04;;;;;;;7.80;3.47;;;27.40;99.90;;;;;;5073302;28;20201;-77
2021/07/17 11:31:53;;;;;;;7.65;2.97;;;27.10;99.90;;;;;;5074390;28;20201;-77
2021/07/17 11:34:49;;;;;;;6.55;3.08;;;27.10;99.90;;;;;;5078406;28;20201;-77
2021/07/17 11:37:19;;;;;;;5.75;2.90;;;26.90;99.90;;;;;;5067494;28;20641;-77
2021/07/17 11:39:49;;;;;;;9.40;3.50;;;26.80;99.90;;;;;;5068322;28;20503;-76
2021/07/17 11:42:18;;;;;;;10.73;2.85;;;26.70;99.90;;;;;;5068021;28;20261;-77
2021/07/17 11:44:47;;;;;;;5.63;2.53;;;26.60;99.90;;;;;;5067103;28;20226;-77
2021/07/17 11:47:17;;;;;;;7.63;2.65;;;26.40;99.90;;;;;;5067049;28;20583;-76
2021/07/17 11:49:46;;;;;;;7.25;3.00;;;26.30;99.90;;;;;;5075841;28;20209;-76
2021/07/17 11:52:16;;;;;;;7.30;2.92;;;26.20;99.90;;;;;;5072171;28;20194;-76
2021/07/17 11:54:45;;;;;;;8.32;2.65;;;26.30;99.90;;;;;;5068240;28;20224;-76
2021/07/17 11:57:16;;;;;;;5.85;2.45;;;26.20;99.90;;;;;;5069898;28;20224;-76
2021/07/17 11:59:44;;;;;;;8.18;3.00;;;26.30;99.90;;;;;;5074503;28;20221;-77
2021/07/17 12:02:13;;;;;;;4.68;2.53;;;26.30;99.90;;;;;;5070349;28;20271;-77
2021/07/17 12:04:43;;;;;;;8.48;2.90;;;26.30;99.90;;;;;;5072602;28;20241;-77
2021/07/17 12:07:12;;;;;;;8.88;2.33;;;26.30;99.90;;;;;;5071841;28;20205;-77
2021/07/17 12:09:42;;;;;;;7.30;2.25;;;26.20;99.90;;;;;;5077090;28;20239;-77
2021/07/17 12:12:30;;;;;;;8.20;2.38;;;26.20;99.90;;;;;;5066278;28;20206;-76
2021/07/17 12:15:14;;;;;;;7.78;2.58;;;26.30;99.90;;;;;;5066944;28;20209;-77
2021/07/17 12:17:56;;;;;;;5.32;2.53;;;26.30;99.90;;;;;;5067327;28;20221;-77
2021/07/17 12:20:25;;;;;;;6.13;2.65;;;26.10;99.90;;;;;;5071489;28;20280;-76
2021/07/17 12:22:58;;;;;;;7.43;3.67;;;26.10;99.90;;;;;;5073892;28;20256;-77
2021/07/17 12:25:27;;;;;;;5.07;2.40;;;26.20;99.90;;;;;;5073951;28;20272;-77
2021/07/17 12:28:14;;;;;;;4.15;2.38;;;26.20;99.90;;;;;;5066072;28;20205;-77
2021/07/17 12:30:44;;;;;;;6.07;2.55;;;26.20;99.90;;;;;;5073732;28;20259;-77
2021/07/17 12:33:30;;;;;;;5.95;2.40;;;26.20;99.90;;;;;;5074085;28;20231;-77
2021/07/17 12:36:11;;;;;;;5.20;2.55;;;26.20;99.90;;;;;;5067398;28;20259;-77
2021/07/17 12:38:41;;;;;;;5.90;2.55;;;26.30;99.90;;;;;;5066523;28;20247;-77
2021/07/17 12:41:11;;;;;;;10.05;2.58;;;26.40;99.90;;;;;;5066785;28;20648;-77
2021/07/17 12:43:42;;;;;;;5.57;2.65;;;26.40;99.90;;;;;;5066989;28;20264;-77
2021/07/17 12:46:13;;;;;;;3.90;2.47;;;26.40;99.90;;;;;;5070921;28;20239;-77
2021/07/17 12:48:48;;;;;;;6.47;2.10;;;26.40;99.90;;;;;;5066181;28;20209;-77
2021/07/17 12:51:18;;;;;;;4.35;1.90;;;26.40;99.90;;;;;;5074644;28;20234;-76
2021/07/17 12:53:46;;;;;;;3.35;2.30;;;26.30;99.90;;;;;;5068351;28;20228;-77
2021/07/17 12:56:15;;;;;;;7.20;2.60;;;26.40;99.90;;;;;;5066492;28;20198;-77
2021/07/17 12:58:44;;;;;;;4.13;2.30;;;26.40;99.90;;;;;;5072456;28;20261;-76
2021/07/17 13:01:13;;;;;;;4.57;2.35;;;26.40;99.90;;;;;;5067993;28;20653;-76
2021/07/17 13:03:40;;;;;;;4.75;1.85;;;26.30;99.90;;;;;;5065950;28;20244;-77
2021/07/17 13:06:14;;;;;;;3.15;2.28;;;26.30;99.90;;;;;;5073402;28;20651;-77
2021/07/17 13:08:42;;;;;;;3.63;2.15;;;26.40;99.90;;;;;;5066895;28;20296;-77
2021/07/17 13:11:17;;;;;;;6.82;1.88;;;26.30;99.90;;;;;;5071680;28;20201;-77
2021/07/17 13:13:51;;;;;;;4.30;2.22;;;26.30;99.90;;;;;;5066573;28;20641;-77
2021/07/17 13:16:30;;;;;;;4.30;1.58;;;26.30;99.90;;;;;;5071465;28;20201;-76
2021/07/17 13:18:57;;;;;;;4.35;1.90;;;26.40;99.90;;;;;;5072489;28;20231;-77
2021/07/17 13:21:35;;;;;;;3.50;1.90;;;26.30;99.90;;;;;;5066103;28;20231;-77
2021/07/17 13:24:03;;;;;;;1.98;1.40;;;26.40;99.90;;;;;;5065973;28;20255;-76
2021/07/17 13:26:31;;;;;;;2.67;1.70;;;26.40;99.90;;;;;;5066013;28;20198;-76
2021/07/17 13:29:01;;;;;;;9.50;1.70;;;26.30;99.90;;;;;;5066212;28;20198;-76
2021/07/17 13:31:32;;;;;;;4.45;1.70;;;26.40;99.90;;;;;;5066661;28;20215;-77
2021/07/17 13:34:09;;;;;;;2.35;1.45;;;26.40;99.90;;;;;;5071739;28;20225;-76
2021/07/17 13:36:36;;;;;;;3.13;1.83;;;26.40;99.90;;;;;;5065905;28;20198;-76
2021/07/17 13:39:04;;;;;;;2.05;1.75;;;26.50;99.90;;;;;;5065789;28;20205;-76
2021/07/17 13:41:31;;;;;;;4.07;1.58;;;26.60;99.90;;;;;;5065972;28;20284;-76
2021/07/17 13:44:17;;;;;;;11.98;2.00;;;26.50;99.90;;;;;;5072091;28;20256;-76
2021/07/17 13:46:44;;;;;;;2.25;1.88;;;26.60;99.90;;;;;;5066769;28;20251;-76
2021/07/17 13:49:12;;;;;;;4.25;1.95;;;26.60;99.90;;;;;;5071083;28;20274;-76
2021/07/17 13:51:39;;;;;;;3.85;2.20;;;26.60;99.90;;;;;;5071521;28;20261;-76
2021/07/17 13:54:06;;;;;;;7.38;1.83;;;26.60;99.90;;;;;;5067397;28;20524;-76
2021/07/17 13:56:36;;;;;;;8.05;2.35;;;26.50;99.90;;;;;;5065262;28;20198;-76
2021/07/17 13:59:06;;;;;;;6.20;1.85;;;26.60;99.90;;;;;;5065933;28;20224;-76
2021/07/17 14:01:35;;;;;;;4.07;1.63;;;26.50;99.90;;;;;;5065198;28;20204;-76
2021/07/17 14:04:03;;;;;;;6.28;1.88;;;26.60;99.90;;;;;;5065427;28;20237;-76
2021/07/17 14:06:30;;;;;;;5.18;2.00;;;26.60;99.90;;;;;;5069020;28;20224;-76
2021/07/17 14:08:58;;;;;;;14.68;2.30;;;26.50;99.90;;;;;;5065259;28;20236;-76
2021/07/17 14:11:25;;;;;;;4.47;1.95;;;26.50;99.90;;;;;;5070772;28;20228;-76
2021/07/17 14:13:53;;;;;;;3.67;1.95;;;26.60;99.90;;;;;;5068691;28;20206;-76
2021/07/17 14:16:20;;;;;;;3.83;1.73;;;26.60;99.90;;;;;;5068093;28;20213;-76
2021/07/17 14:18:48;;;;;;;7.20;1.70;;;26.60;99.90;;;;;;5071730;28;20204;-76
2021/07/17 14:21:16;;;;;;;6.15;3.08;;;26.60;99.90;;;;;;5074219;28;20260;-76
2021/07/17 14:23:46;;;;;;;2.50;1.67;;;26.50;99.90;;;;;;5070732;28;20228;-76
2021/07/17 14:26:13;;;;;;;3.15;1.90;;;26.50;99.90;;;;;;5068549;28;20274;-76
2021/07/17 14:28:40;;;;;;;2.58;1.98;;;26.40;99.90;;;;;;5069061;28;21174;-76
2021/07/17 14:31:08;;;;;;;4.30;1.98;;;26.40;99.90;;;;;;5069850;28;20198;-76
2021/07/17 14:33:35;;;;;;;4.43;1.70;;;26.40;99.90;;;;;;5065408;28;20261;-76
2021/07/17 14:36:04;;;;;;;4.68;2.03;;;26.40;99.90;;;;;;5072716;28;20261;-75
2021/07/17 14:38:31;;;;;;;5.22;1.63;;;26.40;99.90;;;;;;5066919;28;20236;-76
2021/07/17 14:40:58;;;;;;;5.10;1.83;;;26.40;99.90;;;;;;5069841;28;20228;-76
2021/07/17 14:43:25;;;;;;;2.28;1.88;;;26.40;99.90;;;;;;5069114;28;20210;-76
2021/07/17 14:45:52;;;;;;;1.92;1.70;;;26.30;99.90;;;;;;5065702;28;20229;-76
2021/07/17 14:48:19;;;;;;;4.53;1.90;;;26.30;99.90;;;;;;5065284;28;20197;-75
2021/07/17 14:50:46;;;;;;;5.13;2.10;;;26.40;99.90;;;;;;5067495;28;20232;-76
2021/07/17 14:53:15;;;;;;;1.85;1.40;;;26.30;99.90;;;;;;5069079;28;20205;-75
2021/07/17 14:55:43;;;;;;;5.38;1.63;;;26.30;99.90;;;;;;5075295;28;20209;-76
2021/07/17 14:58:11;;;;;;;3.65;1.90;;;26.30;99.90;;;;;;5076688;28;20232;-75
2021/07/17 15:00:37;;;;;;;1.85;1.58;;;26.30;99.90;;;;;;5072886;28;20198;-73
2021/07/17 15:03:04;;;;;;;9.80;2.03;;;26.30;99.90;;;;;;5069177;28;20222;-74
2021/07/17 15:05:31;;;;;;;12.23;5.50;;;26.40;99.90;;;;;;5068681;28;20229;-73
2021/07/17 15:07:58;;;;;;;6.13;2.08;;;26.40;99.90;;;;;;5074587;28;20197;-74
2021/07/17 15:10:27;;;;;;;6.82;2.20;;;26.40;99.90;;;;;;5070368;28;20205;-74
2021/07/17 15:12:54;;;;;;;8.85;2.10;;;26.40;99.90;;;;;;5074869;28;20267;-74
2021/07/17 15:15:21;;;;;;;4.35;1.95;;;26.40;99.90;;;;;;5074504;28;20201;-74
2021/07/17 15:17:48;;;;;;;5.07;2.13;;;26.30;99.90;;;;;;5068141;28;20205;-73
2021/07/17 15:20:16;;;;;;;4.93;1.60;;;26.30;99.90;;;;;;5069117;28;20223;-74
2021/07/17 15:22:43;;;;;;;3.20;1.60;;;26.30;99.90;;;;;;5076008;28;20201;-74
2021/07/17 15:25:11;;;;;;;6.50;3.25;;;26.30;99.90;;;;;;5068671;28;20233;-74
2021/07/17 15:27:39;;;;;;;8.02;1.95;;;26.20;99.90;;;;;;5068010;28;20201;-73
2021/07/17 15:30:07;;;;;;;3.88;1.50;;;26.20;99.90;;;;;;5073568;28;20206;-74
2021/07/17 15:32:34;;;;;;;5.13;1.80;;;26.20;99.90;;;;;;5072874;28;20257;-73
2021/07/17 15:35:01;;;;;;;2.95;1.90;;;26.20;99.90;;;;;;5069533;28;20231;-74
2021/07/17 15:37:28;;;;;;;2.65;1.63;;;26.20;99.90;;;;;;5068203;28;20201;-74
2021/07/17 15:39:55;;;;;;;7.60;1.95;;;26.10;99.90;;;;;;5068726;28;20202;-74
2021/07/17 15:42:22;;;;;;;2.08;1.50;;;26.20;99.90;;;;;;5068804;28;20289;-74
2021/07/17 15:44:50;;;;;;;5.20;1.65;;;26.20;99.90;;;;;;5067769;28;20225;-74
2021/07/17 15:47:17;;;;;;;5.32;2.17;;;26.20;99.90;;;;;;5067515;28;20206;-74
2021/07/17 15:49:44;;;;;;;2.70;1.65;;;26.20;99.90;;;;;;5067806;28;20224;-74
2021/07/17 15:52:11;;;;;;;4.53;1.80;;;26.20;99.90;;;;;;5068094;28;20202;-74
2021/07/17 15:54:38;;;;;;;3.47;1.80;;;26.20;99.90;;;;;;5074249;28;20202;-74
2021/07/17 15:57:08;;;;;;;4.72;1.80;;;26.30;99.90;;;;;;5070909;28;20259;-74
2021/07/17 15:59:35;;;;;;;2.83;1.92;;;26.20;99.90;;;;;;5074020;28;20197;-73
2021/07/17 16:02:04;;;;;;;3.17;1.90;;;26.20;99.90;;;;;;5068612;28;20292;-74
2021/07/17 16:04:31;;;;;;;2.03;1.58;;;26.30;99.90;;;;;;5068381;28;20262;-74
2021/07/17 16:06:58;;;;;;;4.68;2.03;;;26.30;99.90;;;;;;5067822;28;20210;-74
2021/07/17 16:09:25;;;;;;;1.50;1.40;;;26.20;99.90;;;;;;5072963;28;20232;-74
2021/07/17 16:11:52;;;;;;;5.45;1.45;;;26.20;99.90;;;;;;5074103;28;20232;-74
2021/07/17 16:14:20;;;;;;;4.45;2.60;;;26.20;99.90;;;;;;5071345;28;20315;-74
2021/07/17 16:16:47;;;;;;;3.97;1.92;;;26.20;99.90;;;;;;5077692;28;20231;-74
2021/07/17 16:19:15;;;;;;;5.03;1.35;;;26.20;99.90;;;;;;5068113;28;20236;-74
2021/07/17 16:21:43;;;;;;;3.42;1.80;;;26.20;99.90;;;;;;5068400;28;20232;-74
2021/07/17 16:24:10;;;;;;;2.70;1.48;;;26.20;99.90;;;;;;5068883;28;20194;-74
2021/07/17 16:26:37;;;;;;;6.03;1.50;;;26.20;99.90;;;;;;5070447;28;20229;-74
2021/07/17 16:29:05;;;;;;;4.75;1.52;;;26.20;99.90;;;;;;5089232;28;20180;-73